Time;durP1;ratioP1;P1;durP2;ratioP2;P2;SDS_P1;SDS_P2;PMS_P1;PMS_P2;Temp;Humidity;BMP_temperature;BMP_pressure;BME280_temperature;BME280_humidity;BME280_pressure;Samples;Min_cycle;Max_cycle;Signal;HPM_P1;HPM_P2
2022/06/10 00:01:13;;;;;;;5.00;4.20;;;;;;;18.00;100.00;93690.97;5092628;28;20203;-64
2022/06/10 00:03:39;;;;;;;3.95;3.50;;;;;;;18.02;100.00;93688.19;5092407;28;20192;-60
2022/06/10 00:06:07;;;;;;;4.57;3.40;;;;;;;17.91;100.00;93686.22;5074279;28;20196;-61
2022/06/10 00:08:37;;;;;;;6.20;4.00;;;;;;;17.89;100.00;93681.28;5092349;28;20188;-61
2022/06/10 00:11:05;;;;;;;5.18;4.55;;;;;;;17.97;100.00;93693.16;5074405;28;20191;-61
2022/06/10 00:13:33;;;;;;;4.88;4.38;;;;;;;18.07;100.00;93696.13;5092219;28;20215;-63
2022/06/10 00:15:59;;;;;;;6.13;3.85;;;;;;;17.97;100.00;93685.44;5092494;28;20756;-62
2022/06/10 00:18:27;;;;;;;5.18;3.88;;;;;;;18.09;100.00;93694.94;5092173;28;20299;-62
2022/06/10 00:20:53;;;;;;;3.90;3.38;;;;;;;18.15;100.00;93699.28;5074012;28;20203;-61
2022/06/10 00:23:18;;;;;;;6.15;4.00;;;;;;;18.17;100.00;93701.66;5092216;28;20208;-59
2022/06/10 00:25:45;;;;;;;6.72;4.13;;;;;;;18.28;100.00;93701.84;5092198;28;20587;-60
2022/06/10 00:28:12;;;;;;;7.28;3.65;;;;;;;18.16;100.00;93694.94;5074093;28;20309;-62
2022/06/10 00:30:38;;;;;;;3.95;3.55;;;;;;;18.25;100.00;93689.38;5092191;28;20184;-60
2022/06/10 00:33:04;;;;;;;4.78;3.65;;;;;;;18.13;100.00;93690.97;5091949;28;20196;-59
2022/06/10 00:35:30;;;;;;;4.55;3.47;;;;;;;18.37;100.00;93686.97;5091945;28;20317;-60
2022/06/10 00:37:56;;;;;;;6.78;3.92;;;;;;;18.39;100.00;93678.06;5092092;28;20677;-60
2022/06/10 00:40:32;;;;;;;4.70;4.00;;;;;;;18.51;100.00;93686.00;5073715;28;20182;-59
2022/06/10 00:42:58;;;;;;;6.38;3.88;;;;;;;18.52;100.00;93692.75;5091978;28;20196;-63
2022/06/10 00:46:01;;;;;;;4.25;3.63;;;;;;;18.44;100.00;93690.38;5091421;28;20442;-64
2022/06/10 00:48:32;;;;;;;5.60;3.65;;;;;;;18.39;100.00;93682.41;5091913;28;20231;-60
2022/06/10 00:51:03;;;;;;;3.75;3.45;;;;;;;18.33;100.00;93684.03;5092087;28;20195;-59
2022/06/10 00:53:34;;;;;;;3.55;3.25;;;;;;;18.25;100.00;93684.22;5091618;28;20693;-59
2022/06/10 00:56:04;;;;;;;4.32;3.20;;;;;;;18.12;100.00;93678.31;5091741;28;20215;-60
2022/06/10 00:58:41;;;;;;;3.60;3.30;;;;;;;18.16;100.00;93677.69;5091624;28;20252;-59
2022/06/10 01:01:08;;;;;;;4.45;3.90;;;;;;;17.97;100.00;93678.50;5092144;28;20186;-62
2022/06/10 01:03:35;;;;;;;3.63;3.17;;;;;;;18.15;100.00;93681.28;5091784;28;20192;-64
2022/06/10 01:06:01;;;;;;;4.30;3.90;;;;;;;18.22;100.00;93686.41;5091975;28;20195;-63
2022/06/10 01:08:27;;;;;;;4.30;3.92;;;;;;;18.04;100.00;93675.94;5091393;28;20568;-62
2022/06/10 01:11:15;;;;;;;4.68;3.70;;;;;;;17.82;100.00;93671.97;5091965;28;20201;-60
2022/06/10 01:14:00;;;;;;;4.38;4.00;;;;;;;18.00;100.00;93672.16;5073379;28;20207;-59
2022/06/10 01:16:37;;;;;;;5.72;4.38;;;;;;;18.02;100.00;93677.91;5091948;28;20188;-60
2022/06/10 01:19:27;;;;;;;5.53;4.07;;;;;;;18.03;100.00;93672.59;5091406;28;20200;-62
2022/06/10 01:22:16;;;;;;;7.72;4.28;;;;;;;17.97;100.00;93670.81;5092136;28;20188;-59
2022/06/10 01:25:00;;;;;;;5.28;4.25;;;;;;;17.92;100.00;93672.38;5091332;28;20212;-59
2022/06/10 01:28:00;;;;;;;5.45;4.40;;;;;;;17.69;100.00;93672.78;5091843;28;20188;-60
2022/06/10 01:30:53;;;;;;;7.28;4.40;;;;;;;17.75;100.00;93666.84;5091399;28;20176;-60
2022/06/10 01:33:18;;;;;;;6.10;4.40;;;;;;;17.75;100.00;93666.84;5092943;28;20239;-59
2022/06/10 01:36:13;;;;;;;5.60;4.05;;;;;;;17.74;100.00;93672.97;5095443;28;20219;-62
2022/06/10 01:38:46;;;;;;;5.07;4.57;;;;;;;17.79;100.00;93680.09;5087798;28;20674;-61
2022/06/10 01:41:49;;;;;;;4.25;3.85;;;;;;;17.72;100.00;93674.94;5077221;28;20196;-62
2022/06/10 01:45:01;;;;;;;4.85;4.32;;;;;;;17.82;100.00;93677.91;5076974;28;20200;-59
2022/06/10 01:47:41;;;;;;;16.20;4.53;;;;;;;17.72;100.00;93680.09;5048561;28;20279;-61
2022/06/10 01:50:12;;;;;;;7.00;4.22;;;;;;;17.79;100.00;93683.47;5076933;28;20633;-60
2022/06/10 01:52:47;;;;;;;6.88;4.80;;;;;;;17.81;100.00;93681.47;5095149;28;20527;-62
2022/06/10 01:55:21;;;;;;;5.72;4.95;;;;;;;17.74;100.00;93685.81;5095075;28;20691;-62
2022/06/10 01:57:52;;;;;;;8.13;5.15;;;;;;;17.71;100.00;93672.56;5095078;28;20188;-62
2022/06/10 02:00:22;;;;;;;5.95;5.13;;;;;;;17.74;100.00;93685.00;5094902;28;20176;-62
2022/06/10 02:03:13;;;;;;;6.20;5.00;;;;;;;17.71;100.00;93680.28;5094887;28;20203;-60
2022/06/10 02:05:52;;;;;;;7.65;4.88;;;;;;;17.63;100.00;93684.63;5046185;28;20546;-59
2022/06/10 02:08:22;;;;;;;5.40;4.90;;;;;;;17.59;100.00;93682.66;5061054;28;20192;-59
2022/06/10 02:11:14;;;;;;;6.78;6.05;;;;;;;17.88;100.00;93687.41;5094805;28;20177;-59
2022/06/10 02:13:46;;;;;;;7.88;6.20;;;;;;;17.98;100.00;93682.66;5088276;28;20216;-62
2022/06/10 02:16:16;;;;;;;8.48;6.03;;;;;;;17.82;100.00;93682.25;5095276;28;20184;-62
2022/06/10 02:18:54;;;;;;;7.45;5.70;;;;;;;17.71;100.00;93693.13;5076428;28;20199;-59
2022/06/10 02:21:36;;;;;;;8.13;5.50;;;;;;;17.81;100.00;93686.63;5094791;28;20180;-59
2022/06/10 02:24:09;;;;;;;8.48;5.50;;;;;;;17.98;100.00;93692.94;5094506;28;20652;-63
2022/06/10 02:26:37;;;;;;;6.72;6.00;;;;;;;18.10;100.00;93693.16;5094877;28;20185;-62
2022/06/10 02:29:07;;;;;;;8.48;5.90;;;;;;;18.06;100.00;93695.31;5094381;28;20269;-62
2022/06/10 02:31:47;;;;;;;8.73;5.65;;;;;;;17.99;100.00;93694.53;5094768;28;20184;-62
2022/06/10 02:34:13;;;;;;;7.70;6.40;;;;;;;17.90;100.00;93703.44;5094349;28;20215;-60
2022/06/10 02:36:54;;;;;;;7.90;5.90;;;;;;;17.84;100.00;93695.69;5076195;28;20184;-59
2022/06/10 02:39:39;;;;;;;6.47;5.68;;;;;;;17.77;100.00;93700.06;5094219;28;20199;-59
2022/06/10 02:42:19;;;;;;;8.63;6.30;;;;;;;17.69;100.00;93708.75;5094056;28;20188;-61
2022/06/10 02:45:01;;;;;;;6.78;5.75;;;;;;;17.62;100.00;93707.94;5092772;28;20530;-60
2022/06/10 02:47:33;;;;;;;6.35;4.90;;;;;;;17.64;100.00;93716.25;5094648;28;20176;-59
2022/06/10 02:49:59;;;;;;;9.23;5.50;;;;;;;17.89;100.00;93707.00;5094231;28;20180;-60
2022/06/10 02:52:35;;;;;;;6.78;5.78;;;;;;;17.98;100.00;93712.72;5094435;28;20217;-61
2022/06/10 02:55:02;;;;;;;7.10;5.55;;;;;;;17.93;100.00;93704.81;5093805;28;20204;-65
2022/06/10 03:03:09;;;;;;;8.25;5.72;;;;;;;17.50;100.00;93719.78;5093949;28;20704;-59
2022/06/10 03:05:54;;;;;;;5.47;4.80;;;;;;;17.39;100.00;93712.63;5075584;28;20212;-58
2022/06/10 03:08:32;;;;;;;6.70;5.35;;;;;;;17.30;100.00;93716.34;5093554;28;20685;-63
2022/06/10 03:11:07;;;;;;;5.80;5.13;;;;;;;17.32;100.00;93709.25;5093835;28;20184;-63
2022/06/10 03:13:41;;;;;;;5.95;5.25;;;;;;;17.40;100.00;93714.19;5093784;28;20215;-63
2022/06/10 03:16:37;;;;;;;6.18;5.03;;;;;;;17.56;100.00;93722.38;5093829;28;20245;-62
2022/06/10 03:19:17;;;;;;;7.38;5.28;;;;;;;17.53;100.00;93719.41;5093616;28;20231;-61
2022/06/10 03:21:54;;;;;;;7.00;4.90;;;;;;;17.31;100.00;93717.94;5093529;28;20181;-60
2022/06/10 03:24:44;;;;;;;10.60;5.28;;;;;;;17.26;100.00;93725.44;5075280;28;20200;-59
2022/06/10 03:27:31;;;;;;;8.20;4.70;;;;;;;17.26;100.00;93728.00;5093323;28;20217;-64
2022/06/10 03:30:11;;;;;;;5.68;5.07;;;;;;;17.22;100.00;93724.22;5093577;28;20187;-63
2022/06/10 03:32:47;;;;;;;7.30;5.05;;;;;;;17.28;100.00;93726.03;5093468;28;20164;-61
2022/06/10 03:35:24;;;;;;;11.15;10.25;;;;;;;17.33;100.00;93723.69;5092986;28;20272;-60
2022/06/10 03:37:50;;;;;;;9.13;6.25;;;;;;;17.55;100.00;93727.72;5093034;28;20329;-59
2022/06/10 03:40:23;;;;;;;7.45;5.10;;;;;;;17.76;100.00;93724.19;5093114;28;20173;-60
2022/06/10 03:42:53;;;;;;;7.13;5.20;;;;;;;17.87;100.00;93729.56;5074702;28;20250;-60
2022/06/10 03:45:23;;;;;;;7.28;4.70;;;;;;;18.15;100.00;93722.44;5092958;28;20180;-61
2022/06/10 03:47:49;;;;;;;6.13;4.93;;;;;;;18.31;100.00;93727.19;5074653;28;20212;-59
2022/06/10 03:50:18;;;;;;;4.30;3.88;;;;;;;18.33;100.00;93730.34;5074532;28;20642;-59
2022/06/10 03:52:45;;;;;;;7.00;4.45;;;;;;;18.40;100.00;93743.22;5074936;28;20588;-59
2022/06/10 03:55:16;;;;;;;5.05;3.53;;;;;;;18.37;100.00;93744.41;5092473;28;20237;-63
2022/06/10 03:57:42;;;;;;;6.32;3.47;;;;;;;17.99;100.00;93740.84;5092686;28;20200;-61
2022/06/10 04:00:13;;;;;;;8.65;4.60;;;;;;;17.96;100.00;93733.50;5092628;28;20179;-62
2022/06/10 04:02:38;;;;;;;6.28;3.45;;;;;;;18.06;100.00;93735.69;5092910;28;20310;-63
2022/06/10 04:05:04;;;;;;;5.68;4.03;;;;;;;17.98;100.00;93754.66;5074859;28;20216;-62
2022/06/10 04:07:30;;;;;;;6.75;4.57;;;;;;;18.03;100.00;93741.22;5073562;28;20221;-62
2022/06/10 04:09:55;;;;;;;3.78;3.47;;;;;;;18.01;100.00;93738.84;5092353;28;20184;-61
2022/06/10 04:12:21;;;;;;;3.55;3.13;;;;;;;17.95;100.00;93721.66;5093128;28;20180;-62
2022/06/10 04:14:48;;;;;;;4.00;3.55;;;;;;;17.96;100.00;93743.78;5092554;28;20207;-63
2022/06/10 04:17:13;;;;;;;4.28;3.88;;;;;;;17.75;100.00;93740.59;5092999;28;20604;-62
2022/06/10 04:19:39;;;;;;;5.57;3.58;;;;;;;17.84;100.00;93740.22;5092256;28;20234;-62
2022/06/10 04:22:05;;;;;;;7.82;4.15;;;;;;;17.67;100.00;93743.34;5092858;28;20212;-64
2022/06/10 04:24:30;;;;;;;5.28;3.67;;;;;;;17.75;100.00;93738.84;5092310;28;20200;-63
2022/06/10 04:26:56;;;;;;;12.52;4.35;;;;;;;17.69;100.00;93739.63;5074288;28;20280;-62
2022/06/10 04:29:21;;;;;;;5.38;3.97;;;;;;;17.83;100.00;93740.41;5092070;28;20219;-64
2022/06/10 04:31:47;;;;;;;5.47;3.85;;;;;;;17.71;100.00;93737.63;5092570;28;20186;-63
2022/06/10 04:34:13;;;;;;;6.15;4.38;;;;;;;17.75;100.00;93741.41;5092210;28;20204;-65
2022/06/10 04:36:39;;;;;;;4.57;4.18;;;;;;;17.83;100.00;93743.78;5092600;28;20184;-64
2022/06/10 04:39:05;;;;;;;5.30;4.03;;;;;;;17.71;100.00;93747.13;5091945;28;20200;-63
2022/06/10 04:41:31;;;;;;;4.75;4.03;;;;;;;17.86;100.00;93745.94;5092372;28;20188;-64
2022/06/10 04:43:57;;;;;;;6.65;3.90;;;;;;;17.87;100.00;93752.69;5092045;28;20241;-64
2022/06/10 04:46:33;;;;;;;5.57;4.65;;;;;;;17.73;100.00;93753.66;5092201;28;20199;-63
2022/06/10 04:48:59;;;;;;;5.70;3.88;;;;;;;17.83;100.00;93759.22;5091841;28;20192;-64
2022/06/10 04:51:25;;;;;;;7.20;4.35;;;;;;;17.97;100.00;93758.25;5091732;28;20218;-63
2022/06/10 04:53:50;;;;;;;6.15;4.45;;;;;;;18.12;100.00;93761.41;5091952;28;20204;-63
2022/06/10 04:56:17;;;;;;;5.32;4.35;;;;;;;17.96;100.00;93763.56;5073782;28;20265;-64
2022/06/10 04:58:43;;;;;;;5.40;4.82;;;;;;;17.92;100.00;93763.16;5091596;28;20203;-63
2022/06/10 05:01:15;;;;;;;7.05;4.47;;;;;;;17.90;100.00;93767.72;5073697;28;20661;-65
2022/06/10 05:03:40;;;;;;;4.88;4.40;;;;;;;17.96;100.00;93761.00;5091697;28;20219;-64
2022/06/10 05:06:07;;;;;;;5.15;4.65;;;;;;;17.91;100.00;93769.31;5091930;28;20176;-64
2022/06/10 05:08:32;;;;;;;6.97;4.70;;;;;;;18.08;100.00;93770.50;5094009;28;20210;-63
2022/06/10 05:10:58;;;;;;;5.50;4.55;;;;;;;18.00;100.00;93769.91;5095754;28;20267;-63
2022/06/10 05:13:23;;;;;;;8.93;4.88;;;;;;;17.91;100.00;93771.09;5109843;22;20302;-64
2022/06/10 05:15:50;;;;;;;8.00;4.95;;;;;;;17.97;100.00;93771.09;5102752;22;20223;-63
2022/06/10 05:18:19;;;;;;;7.07;4.85;;;;;;;18.08;100.00;93764.59;5095484;28;20203;-64
2022/06/10 05:20:44;;;;;;;6.00;4.68;;;;;;;18.24;100.00;93774.50;5095958;28;20219;-64
2022/06/10 05:23:12;;;;;;;5.10;4.53;;;;;;;18.24;100.00;93775.25;5095553;28;20345;-63
2022/06/10 05:25:46;;;;;;;6.35;4.90;;;;;;;18.30;100.00;93782.19;5095496;28;20199;-64
2022/06/10 05:28:13;;;;;;;7.75;4.32;;;;;;;18.41;100.00;93781.63;5095564;28;20188;-64
2022/06/10 05:30:40;;;;;;;6.38;5.28;;;;;;;18.39;100.00;93777.66;5095686;28;20204;-63
2022/06/10 05:33:08;;;;;;;6.28;5.43;;;;;;;18.57;100.00;93779.63;5095118;28;20231;-63
2022/06/10 05:35:34;;;;;;;7.40;5.72;;;;;;;18.57;100.00;93777.06;5102303;22;20255;-63
2022/06/10 05:38:00;;;;;;;7.80;5.97;;;;;;;18.55;100.00;93779.03;5095185;28;20253;-63
2022/06/10 05:40:28;;;;;;;7.82;6.18;;;;;;;18.42;100.00;93772.88;5095645;28;20188;-63
2022/06/10 05:42:54;;;;;;;10.43;7.10;;;;;;;18.47;100.00;93777.47;5095024;28;20195;-63
2022/06/10 05:45:21;;;;;;;8.65;7.10;;;;;;;18.53;100.00;93776.69;5077049;28;20709;-63
2022/06/10 05:47:50;;;;;;;11.80;7.00;;;;;;;18.51;100.00;93781.22;5094964;28;20200;-63
2022/06/10 05:50:23;;;;;;;7.30;6.60;;;;;;;18.49;100.00;93779.84;5095490;28;20237;-62
2022/06/10 05:52:50;;;;;;;7.03;6.32;;;;;;;18.44;100.00;93776.09;5076783;28;20204;-63
2022/06/10 05:55:17;;;;;;;6.80;6.05;;;;;;;18.46;100.00;93782.84;5102133;22;20223;-63
2022/06/10 05:57:42;;;;;;;10.05;7.15;;;;;;;18.34;100.00;93780.81;5094814;28;20188;-63
2022/06/10 06:00:13;;;;;;;10.70;8.13;;;;;;;18.50;100.00;93784.00;5076475;28;20195;-64
2022/06/10 06:02:40;;;;;;;11.40;7.88;;;;;;;18.55;100.00;93781.63;5094485;28;20253;-63
2022/06/10 06:05:05;;;;;;;8.38;7.57;;;;;;;18.47;100.00;93789.53;5094953;28;20195;-63
2022/06/10 06:07:31;;;;;;;13.48;7.53;;;;;;;18.41;100.00;93784.19;5102106;22;20184;-63
2022/06/10 06:09:57;;;;;;;9.52;7.70;;;;;;;18.57;100.00;93789.94;5084856;22;20225;-64
2022/06/10 06:12:23;;;;;;;9.95;8.10;;;;;;;18.70;100.00;93800.25;5074186;28;20659;-63
2022/06/10 06:14:49;;;;;;;8.68;7.78;;;;;;;18.43;100.00;93789.97;5067270;22;20233;-63
2022/06/10 06:17:19;;;;;;;11.68;7.60;;;;;;;18.35;100.00;93791.91;5054260;28;20178;-64
2022/06/10 06:19:46;;;;;;;8.75;7.95;;;;;;;18.53;100.00;93791.31;5052670;28;20706;-63
2022/06/10 06:22:11;;;;;;;9.38;8.20;;;;;;;18.39;100.00;93803.38;5054398;28;20178;-63
2022/06/10 06:24:38;;;;;;;9.27;7.72;;;;;;;18.33;100.00;93804.97;5078474;22;20217;-63
2022/06/10 06:27:05;;;;;;;11.05;7.70;;;;;;;18.32;100.00;93808.53;5074139;28;20184;-63
2022/06/10 06:29:31;;;;;;;9.73;7.05;;;;;;;18.31;100.00;93814.66;5074591;28;20266;-62
2022/06/10 06:31:57;;;;;;;10.63;8.10;;;;;;;18.38;100.00;93815.44;5074006;28;20176;-63
2022/06/10 06:34:24;;;;;;;10.45;7.53;;;;;;;18.36;100.00;93809.72;5074097;28;20209;-62
2022/06/10 06:36:52;;;;;;;9.93;8.02;;;;;;;18.25;100.00;93810.31;5073884;28;20259;-63
2022/06/10 06:39:20;;;;;;;8.60;7.68;;;;;;;18.22;100.00;93802.97;5074314;28;20275;-63
2022/06/10 06:41:46;;;;;;;10.18;8.07;;;;;;;18.26;100.00;93816.25;5073969;28;20230;-63
2022/06/10 06:44:12;;;;;;;8.02;7.20;;;;;;;18.23;100.00;93808.91;5072322;28;20217;-64
2022/06/10 06:46:40;;;;;;;9.07;7.50;;;;;;;18.39;100.00;93806.75;5073746;28;20180;-64
2022/06/10 06:49:09;;;;;;;9.43;8.48;;;;;;;18.49;100.00;93808.16;5074007;28;20281;-64
2022/06/10 06:51:35;;;;;;;9.35;7.68;;;;;;;18.36;100.00;93809.72;5073754;28;20177;-62
2022/06/10 06:54:01;;;;;;;9.90;7.88;;;;;;;18.33;100.00;93810.13;5091602;22;20259;-63
2022/06/10 06:56:28;;;;;;;9.95;8.57;;;;;;;18.59;100.00;93809.34;5093692;28;20208;-64
2022/06/10 06:58:53;;;;;;;9.02;7.65;;;;;;;18.56;100.00;93809.75;5093927;28;20204;-64
2022/06/10 07:01:19;;;;;;;11.43;8.68;;;;;;;18.66;100.00;93806.78;5093694;28;20180;-62
2022/06/10 07:03:44;;;;;;;8.77;7.85;;;;;;;18.74;100.00;93807.38;5082942;22;20322;-62
2022/06/10 07:06:10;;;;;;;8.50;7.70;;;;;;;18.72;100.00;93808.56;5093889;28;20532;-63
2022/06/10 07:08:36;;;;;;;10.02;8.65;;;;;;;18.73;100.00;93810.94;5082688;22;20310;-62
2022/06/10 07:11:03;;;;;;;16.52;9.43;;;;;;;18.60;100.00;93803.22;5093535;28;20310;-62
2022/06/10 07:13:29;;;;;;;11.20;9.07;;;;;;;18.55;100.00;93807.38;5093648;28;20279;-63
2022/06/10 07:15:55;;;;;;;9.93;8.27;;;;;;;18.70;100.00;93811.34;5093655;28;20308;-63
2022/06/10 07:18:21;;;;;;;9.50;8.57;;;;;;;18.61;100.00;93809.16;5093521;28;20196;-63
2022/06/10 07:20:46;;;;;;;9.63;8.73;;;;;;;18.60;100.00;93815.31;5093993;28;20213;-63
2022/06/10 07:23:12;;;;;;;10.48;9.10;;;;;;;18.40;100.00;93812.69;5093480;28;20207;-63
2022/06/10 07:25:37;;;;;;;9.70;8.68;;;;;;;18.63;100.00;93804.59;5093217;28;20286;-63
2022/06/10 07:28:03;;;;;;;11.18;8.85;;;;;;;18.77;100.00;93812.09;5093372;28;20200;-63
2022/06/10 07:30:31;;;;;;;12.18;10.85;;;;;;;18.82;100.00;93807.16;5081535;22;20222;-62
2022/06/10 07:32:57;;;;;;;10.70;9.07;;;;;;;18.86;100.00;93815.28;5093379;28;20547;-62
2022/06/10 07:35:23;;;;;;;8.88;7.88;;;;;;;18.95;100.00;93820.00;5075172;28;20219;-63
2022/06/10 07:37:49;;;;;;;11.85;9.30;;;;;;;18.93;100.00;93823.75;5093290;28;20223;-63
2022/06/10 07:43:12;;;;;;;10.23;8.60;;;;;;;18.95;100.00;93820.00;5092745;28;20265;-62
2022/06/10 07:45:39;;;;;;;11.13;8.20;;;;;;;18.91;100.00;93818.81;5093317;28;20176;-62
2022/06/10 07:48:05;;;;;;;13.88;8.52;;;;;;;18.85;100.00;93818.81;5093679;28;20192;-63
2022/06/10 07:50:31;;;;;;;11.25;7.88;;;;;;;18.86;100.00;93812.69;5092716;28;20188;-65
2022/06/10 07:52:56;;;;;;;11.10;7.95;;;;;;;18.90;100.00;93816.47;5091275;28;20196;-63
2022/06/10 07:55:22;;;;;;;10.13;8.38;;;;;;;18.95;100.00;93824.34;5072997;28;20218;-64
2022/06/10 07:57:48;;;;;;;17.10;8.98;;;;;;;19.12;100.00;93823.75;5093260;28;20196;-64
2022/06/10 08:00:14;;;;;;;9.60;8.60;;;;;;;19.09;100.00;93815.59;5074842;28;20267;-62
2022/06/10 08:02:40;;;;;;;15.15;8.00;;;;;;;19.01;100.00;93818.41;5074537;28;20184;-64
2022/06/10 08:05:08;;;;;;;8.32;7.57;;;;;;;19.10;100.00;93822.38;5092436;28;20188;-64
2022/06/10 08:07:37;;;;;;;9.88;8.68;;;;;;;19.52;100.00;93826.22;5092680;28;20227;-64
2022/06/10 08:10:04;;;;;;;9.80;7.88;;;;;;;19.54;100.00;93824.22;5092960;28;20630;-64
2022/06/10 08:12:30;;;;;;;8.65;7.75;;;;;;;19.65;100.00;93821.81;5092322;28;20677;-63
2022/06/10 08:14:55;;;;;;;9.60;8.60;;;;;;;19.74;100.00;93824.94;5074320;28;20216;-62
2022/06/10 08:17:20;;;;;;;9.60;7.40;;;;;;;19.91;100.00;93839.75;5074320;28;20219;-61
2022/06/10 08:19:46;;;;;;;8.68;7.78;;;;;;;19.98;100.00;93835.34;5099767;22;20224;-64
2022/06/10 08:24:55;;;;;;;10.40;6.68;;;;;;;20.00;100.00;93841.09;5072155;28;20226;-62
2022/06/10 08:27:22;;;;;;;7.50;6.55;;;;;;;20.13;100.00;93836.84;5072048;28;20181;-63
2022/06/10 08:29:48;;;;;;;9.10;8.13;;;;;;;20.17;100.00;93838.00;5071970;28;20179;-63
2022/06/10 08:32:13;;;;;;;9.20;7.10;;;;;;;20.40;100.00;93840.88;5071950;28;20173;-64
2022/06/10 08:34:41;;;;;;;7.72;6.53;;;;;;;20.28;100.00;93858.81;5071726;28;20754;-64
2022/06/10 08:37:07;;;;;;;7.05;6.38;;;;;;;20.20;100.00;93840.22;5071811;28;20177;-63
2022/06/10 08:39:32;;;;;;;10.93;7.20;;;;;;;20.24;100.00;93854.28;5053744;28;20213;-64
2022/06/10 08:42:06;;;;;;;9.43;7.65;;;;;;;20.14;100.00;93848.75;5071698;28;20173;-63
2022/06/10 08:44:53;;;;;;;8.45;7.50;;;;;;;20.23;100.00;93850.13;5054066;28;20294;-64
2022/06/10 08:47:40;;;;;;;8.85;7.22;;;;;;;20.63;100.00;93874.69;5071934;28;20196;-63
2022/06/10 08:53:08;;;;;;;7.95;7.15;;;;;;;20.77;100.00;93876.97;5099417;22;20228;-63
2022/06/10 08:55:36;;;;;;;8.02;7.22;;;;;;;20.66;100.00;93859.56;5091785;28;20581;-63
2022/06/10 08:58:13;;;;;;;7.82;6.95;;;;;;;20.64;100.00;93847.84;5091719;28;20192;-62
2022/06/10 09:00:41;;;;;;;10.10;6.60;;;;;;;20.62;100.00;93858.41;5091719;28;20188;-62
2022/06/10 09:03:19;;;;;;;7.88;6.93;;;;;;;20.76;100.00;93862.47;5091597;28;20724;-63
2022/06/10 09:05:55;;;;;;;8.93;6.88;;;;;;;20.78;100.00;93864.84;5091757;28;20211;-62
2022/06/10 09:08:43;;;;;;;8.00;7.18;;;;;;;20.69;100.00;93866.88;5091911;28;20192;-63
2022/06/10 09:11:15;;;;;;;9.25;6.90;;;;;;;20.67;100.00;93878.41;5091747;28;20538;-63
2022/06/10 09:13:48;;;;;;;7.47;6.75;;;;;;;20.27;100.00;93856.44;5091888;28;20235;-65
2022/06/10 09:16:26;;;;;;;8.35;7.07;;;;;;;20.02;100.00;93840.88;5091939;28;20238;-64
2022/06/10 09:19:07;;;;;;;8.15;7.35;;;;;;;20.42;100.00;93851.78;5091584;28;20689;-62
2022/06/10 09:21:42;;;;;;;10.93;6.63;;;;;;;20.45;100.00;93848.78;5091948;28;20192;-63
2022/06/10 09:24:24;;;;;;;7.10;6.43;;;;;;;20.14;100.00;93861.66;5091697;28;20277;-62
2022/06/10 09:26:59;;;;;;;7.40;6.55;;;;;;;20.12;100.00;93843.78;5091548;28;20180;-63
2022/06/10 09:29:24;;;;;;;7.20;6.60;;;;;;;19.99;100.00;93843.88;5091454;28;20242;-62
2022/06/10 09:32:07;;;;;;;7.50;6.78;;;;;;;19.87;100.00;93845.53;5091858;28;20268;-64
2022/06/10 09:34:52;;;;;;;7.75;7.05;;;;;;;19.93;100.00;93849.88;5091445;28;20241;-63
2022/06/10 09:37:30;;;;;;;7.90;7.10;;;;;;;19.77;100.00;93850.34;5073617;28;20196;-63
2022/06/10 09:42:56;;;;;;;8.60;7.78;;;;;;;19.75;100.00;93860.06;5091343;28;20211;-64
2022/06/10 09:45:45;;;;;;;8.70;7.75;;;;;;;19.46;100.00;93856.19;5091407;28;20176;-64
2022/06/10 09:48:14;;;;;;;8.88;7.30;;;;;;;19.36;100.00;93852.44;5073088;28;20256;-64
2022/06/10 09:51:01;;;;;;;8.30;7.50;;;;;;;19.52;100.00;93868.28;5091074;28;20241;-64
2022/06/10 09:53:53;;;;;;;8.75;7.53;;;;;;;19.25;100.00;93859.78;5073296;28;20260;-65
2022/06/10 09:59:15;;;;;;;10.25;9.18;;;;;;;19.09;100.00;93874.88;5101874;22;20674;-63
2022/06/10 10:04:49;;;;;;;9.90;8.00;;;;;;;18.29;100.00;93886.13;5102186;22;20236;-63
2022/06/10 10:07:41;;;;;;;11.00;9.45;;;;;;;18.17;100.00;93892.84;5095011;28;20176;-64
2022/06/10 10:10:29;;;;;;;13.27;9.30;;;;;;;18.04;100.00;93897.94;5095002;28;20175;-62
2022/06/10 10:13:16;;;;;;;10.95;9.68;;;;;;;18.03;100.00;93901.50;5095135;28;20677;-66
2022/06/10 10:15:42;;;;;;;9.23;7.75;;;;;;;18.12;100.00;93915.75;5094737;28;20584;-63
2022/06/10 10:18:26;;;;;;;10.38;8.57;;;;;;;17.92;100.00;93909.75;5076515;28;20582;-62
2022/06/10 10:21:09;;;;;;;10.82;8.38;;;;;;;17.78;100.00;93900.41;5094916;28;20164;-62
2022/06/10 10:23:39;;;;;;;11.25;9.60;;;;;;;17.72;100.00;93903.75;5076257;28;20684;-61
2022/06/10 10:26:29;;;;;;;8.88;7.60;;;;;;;17.73;100.00;93905.34;5094703;28;20560;-61
2022/06/10 10:29:18;;;;;;;10.82;6.65;;;;;;;17.58;100.00;93902.09;5094537;28;20204;-62
2022/06/10 10:31:52;;;;;;;7.57;6.60;;;;;;;17.55;100.00;93895.56;5094347;28;20278;-62
2022/06/10 10:34:29;;;;;;;7.93;7.13;;;;;;;17.76;100.00;93904.94;5094625;28;20749;-65
2022/06/10 10:36:58;;;;;;;9.90;6.85;;;;;;;17.89;100.00;93904.22;5094429;28;20649;-64
2022/06/10 10:39:29;;;;;;;12.55;8.38;;;;;;;17.98;100.00;93903.84;5094376;28;20693;-62
2022/06/10 10:42:02;;;;;;;9.93;7.45;;;;;;;17.98;100.00;93903.03;5094470;28;20706;-63
2022/06/10 10:45:03;;;;;;;8.05;6.95;;;;;;;17.95;100.00;93909.38;5094265;28;20216;-63
2022/06/10 10:47:29;;;;;;;9.52;7.40;;;;;;;18.10;100.00;93904.88;5031940;28;20285;-65
2022/06/10 10:50:06;;;;;;;10.75;8.30;;;;;;;18.08;100.00;93903.50;5081590;28;20215;-63
2022/06/10 10:52:34;;;;;;;8.15;7.35;;;;;;;17.93;100.00;93895.94;5094169;28;20260;-61
2022/06/10 10:55:28;;;;;;;7.72;7.03;;;;;;;18.08;100.00;93891.41;5075937;28;20712;-63
2022/06/10 10:58:04;;;;;;;9.02;8.13;;;;;;;18.14;100.00;93898.34;5094391;28;20197;-62
2022/06/10 11:00:41;;;;;;;6.80;6.10;;;;;;;18.10;100.00;93880.94;5094194;28;20168;-65
2022/06/10 11:03:41;;;;;;;8.73;7.75;;;;;;;18.20;100.00;93892.44;5075881;28;20216;-65
2022/06/10 11:06:29;;;;;;;11.20;7.93;;;;;;;18.29;100.00;93895.63;5081779;28;20188;-64
2022/06/10 11:09:00;;;;;;;9.40;8.00;;;;;;;18.62;100.00;93899.06;5093704;28;20215;-65
2022/06/10 11:11:36;;;;;;;9.05;7.75;;;;;;;18.76;100.00;93903.25;5075491;28;20180;-64
2022/06/10 11:14:16;;;;;;;8.48;7.57;;;;;;;18.77;100.00;93899.66;5093570;28;20322;-61
2022/06/10 11:16:55;;;;;;;10.40;8.20;;;;;;;18.75;100.00;93899.06;5075654;28;20282;-61
2022/06/10 11:19:37;;;;;;;9.77;7.88;;;;;;;18.60;100.00;93892.53;5075556;28;20228;-67
2022/06/10 11:24:50;;;;;;;8.55;7.63;;;;;;;18.66;100.00;93889.16;5101024;22;20228;-63
2022/06/10 11:27:39;;;;;;;9.18;8.05;;;;;;;18.63;100.00;93889.56;5093447;28;20176;-62
2022/06/10 11:30:10;;;;;;;7.65;6.07;;;;;;;18.63;100.00;93889.56;5093436;28;20171;-63
2022/06/10 11:33:05;;;;;;;6.75;5.97;;;;;;;18.75;100.00;93890.53;5093435;28;20535;-64
2022/06/10 11:35:36;;;;;;;7.25;6.55;;;;;;;18.96;100.00;93877.47;5049178;28;20219;-63
2022/06/10 11:38:16;;;;;;;8.68;7.15;;;;;;;19.21;100.00;93881.00;5075129;28;20208;-62
2022/06/10 11:40:51;;;;;;;9.80;8.00;;;;;;;19.00;100.00;93883.81;5093253;28;20168;-66
2022/06/10 11:43:34;;;;;;;13.30;8.15;;;;;;;19.09;100.00;93880.81;5093322;28;20208;-64
2022/06/10 11:46:01;;;;;;;8.80;7.60;;;;;;;19.06;100.00;93872.72;5093094;28;20184;-64
2022/06/10 11:48:37;;;;;;;9.07;7.93;;;;;;;19.16;100.00;93879.03;5093297;28;20219;-63
2022/06/10 11:51:07;;;;;;;11.95;8.13;;;;;;;19.46;100.00;93873.44;5093147;28;20164;-62
2022/06/10 11:53:38;;;;;;;9.10;8.10;;;;;;;19.75;100.00;93878.91;5074753;28;20682;-65
2022/06/10 12:01:47;;;;;;;7.75;6.38;;;;;;;19.96;100.00;93878.63;5093126;28;20237;-64
2022/06/10 12:04:24;;;;;;;7.47;6.25;;;;;;;19.90;100.00;93886.38;5093178;28;20211;-64
2022/06/10 12:07:02;;;;;;;7.65;5.75;;;;;;;20.04;100.00;93870.63;5092799;28;20164;-63
2022/06/10 12:09:29;;;;;;;6.70;5.60;;;;;;;20.07;100.00;93882.34;5093269;28;20290;-63
2022/06/10 12:12:04;;;;;;;5.93;5.22;;;;;;;20.93;100.00;93868.69;5092660;28;20168;-64
2022/06/10 12:14:54;;;;;;;4.63;4.00;;;;;;;21.19;100.00;93924.56;5074043;28;20219;-62
2022/06/10 12:17:39;;;;;;;6.00;4.88;;;;;;;21.22;100.00;93859.50;5092315;28;20168;-63
2022/06/10 12:20:13;;;;;;;5.30;4.80;;;;;;;21.65;100.00;93887.91;5092632;28;20242;-63